Cecil, New Jersey
Current Conditions -  °F | °C
As of 11:42 AM on Thursday 23 Oct 2014 (Local Time) from KMIV Reporting Station
Light Rain Light Rain  
Wind Chill: 52°   Ceiling: 1500
Heat Index: 52°   Visibility: 10mi
Dew Point: 48°   Wind: 16mph
Humidity: 86%   Direction: 330°NNW
Pressure: 29.78"   Gusts: 22mph
Location:  39.6478°N, 74.9514°W
Report Text: KMIV 231542Z AUTO 33014G19KT 10SM -RA BKN015 OVC022 11/09 A2978 RMK AO2 P0000 T01110089
Loading
Personal Weather Stations






























Interactive Weather Map
Tropical Storm Tracking
New forecast layout! Learn more

10-Day Weather Forecast

Advertisements
Track Severe Weather on mobile